Haydock, United Kingdom
Current Conditions -  °F | °C
As of 4:20 PM on Wednesday 26 Nov 2014 (Local Time) from EGGP Reporting Station
Broken Clouds Broken Clouds  
Wind Chill: 46°   Ceiling: 1600
Heat Index: 46°   Visibility: 5mi
Dew Point: 45°   Wind: 3mph
Humidity: 93%   Direction: 30°NNE
Pressure: 29.83"   Gusts: NA
Location:  53.47°N, 2.68°W
Report Text: EGGP 261620Z 03003KT 8000 FEW013 BKN016 08/07 Q1010
Loading
Personal Weather Stations






























Interactive Weather Map New forecast layout! Learn more

10-Day Weather Forecast

Advertisements
Track Severe Weather on mobile